Time;durP1;ratioP1;P1;durP2;ratioP2;P2;SDS_P1;SDS_P2;PMS_P1;PMS_P2;Temp;Humidity;BMP_temperature;BMP_pressure;BME280_temperature;BME280_humidity;BME280_pressure;Samples;Min_cycle;Max_cycle;Signal;HPM_P1;HPM_P2
2022/03/28 00:00:47;;;;;;;8.95;2.95;;;7.30;99.90;;;;;;4900074;29;20426;-84
2022/03/28 00:03:13;;;;;;;12.60;2.97;;;7.40;99.90;;;;;;4902350;29;20122;-85
2022/03/28 00:05:39;;;;;;;9.25;2.50;;;7.40;99.90;;;;;;4905436;29;20090;-84
2022/03/28 00:08:05;;;;;;;14.20;2.25;;;7.40;99.90;;;;;;4912320;29;20422;-85
2022/03/28 00:10:33;;;;;;;10.75;2.83;;;7.40;99.90;;;;;;4916522;29;20036;-84
2022/03/28 00:12:59;;;;;;;7.95;2.60;;;7.40;99.90;;;;;;4891274;29;20162;-85
2022/03/28 00:15:25;;;;;;;18.83;3.35;;;7.30;99.90;;;;;;4916463;29;20474;-85
2022/03/28 00:17:50;;;;;;;7.13;2.90;;;7.30;99.90;;;;;;4919004;29;20055;-85
2022/03/28 00:20:16;;;;;;;11.25;3.55;;;7.30;99.90;;;;;;4904111;29;20075;-85
2022/03/28 00:22:42;;;;;;;16.27;3.53;;;7.30;99.90;;;;;;4919628;29;20403;-85
2022/03/28 00:25:10;;;;;;;6.40;3.33;;;7.30;99.90;;;;;;4908791;29;20453;-85
2022/03/28 00:27:36;;;;;;;9.35;3.00;;;7.20;99.90;;;;;;4895281;29;20043;-85
2022/03/28 00:30:02;;;;;;;13.90;3.20;;;7.20;99.90;;;;;;4931571;29;20062;-85
2022/03/28 00:32:28;;;;;;;19.85;4.25;;;7.20;99.90;;;;;;4894808;29;20036;-84
2022/03/28 00:34:55;;;;;;;12.57;3.85;;;7.20;99.90;;;;;;4896402;29;20043;-85
2022/03/28 00:37:20;;;;;;;23.23;5.22;;;7.10;99.90;;;;;;4896777;29;20075;-85
2022/03/28 00:39:46;;;;;;;28.83;5.63;;;7.10;99.90;;;;;;4919432;29;20075;-84
2022/03/28 00:42:12;;;;;;;16.65;5.05;;;7.10;99.90;;;;;;4889404;29;20054;-84
2022/03/28 00:44:39;;;;;;;40.15;5.65;;;7.10;99.90;;;;;;4888241;29;20134;-84
2022/03/28 00:47:05;;;;;;;21.67;5.20;;;7.10;99.90;;;;;;4889783;29;20478;-85
2022/03/28 00:49:31;;;;;;;17.80;6.40;;;7.00;99.90;;;;;;4886909;29;20046;-85
2022/03/28 00:51:57;;;;;;;12.70;5.82;;;7.00;99.90;;;;;;4906503;29;20198;-85
2022/03/28 00:54:22;;;;;;;16.77;6.57;;;7.10;99.90;;;;;;4904145;29;20138;-85
2022/03/28 00:56:49;;;;;;;17.73;5.72;;;7.10;99.90;;;;;;4890564;29;20047;-85
2022/03/28 00:59:15;;;;;;;16.80;5.30;;;7.20;99.90;;;;;;4898055;29;20179;-85
2022/03/28 01:01:41;;;;;;;12.85;5.55;;;7.20;99.90;;;;;;4897108;29;20053;-83
2022/03/28 01:04:09;;;;;;;13.85;6.07;;;7.10;99.90;;;;;;4909820;29;20058;-83
2022/03/28 01:06:38;;;;;;;13.45;5.93;;;7.10;99.90;;;;;;4902945;29;20381;-82
2022/03/28 01:09:05;;;;;;;13.00;5.70;;;7.10;99.90;;;;;;4898819;29;20561;-83
2022/03/28 01:11:33;;;;;;;17.42;6.80;;;7.20;99.90;;;;;;4908581;29;20543;-82
2022/03/28 01:13:59;;;;;;;15.73;6.13;;;7.20;99.90;;;;;;4907265;29;20532;-82
2022/03/28 01:16:28;;;;;;;21.83;7.25;;;7.20;99.90;;;;;;4907593;29;20047;-81
2022/03/28 01:18:54;;;;;;;12.77;6.13;;;7.30;99.90;;;;;;4928086;29;20043;-81
2022/03/28 01:21:19;;;;;;;11.50;5.55;;;7.30;99.90;;;;;;4892608;29;20047;-80
2022/03/28 01:23:46;;;;;;;14.80;4.63;;;7.30;99.90;;;;;;4913531;29;20036;-81
2022/03/28 01:26:14;;;;;;;8.52;4.20;;;7.30;99.90;;;;;;4914199;29;20039;-81
2022/03/28 01:28:40;;;;;;;11.40;4.57;;;7.30;99.90;;;;;;4899933;29;20052;-81
2022/03/28 01:31:07;;;;;;;12.95;4.60;;;7.30;99.90;;;;;;4925976;29;20122;-81
2022/03/28 01:33:35;;;;;;;15.68;4.03;;;7.20;99.90;;;;;;4914892;29;20051;-81
2022/03/28 01:36:00;;;;;;;18.85;4.90;;;7.20;99.90;;;;;;4899452;29;20126;-81
2022/03/28 01:38:26;;;;;;;23.63;4.35;;;7.20;99.90;;;;;;4914351;29;20112;-81
2022/03/28 01:40:53;;;;;;;14.05;4.13;;;7.10;99.90;;;;;;4896615;29;20102;-81
2022/03/28 01:43:20;;;;;;;30.30;5.32;;;7.10;99.90;;;;;;4927756;29;20418;-81
2022/03/28 01:45:46;;;;;;;13.75;4.32;;;7.00;99.90;;;;;;4897582;29;20047;-81
2022/03/28 01:48:12;;;;;;;26.77;5.57;;;7.00;99.90;;;;;;4898362;29;20032;-81
2022/03/28 01:50:38;;;;;;;32.08;4.97;;;7.00;99.90;;;;;;4900027;29;20043;-81
2022/03/28 01:53:05;;;;;;;30.38;4.82;;;7.00;99.90;;;;;;4897317;29;20055;-82
2022/03/28 01:55:31;;;;;;;16.73;4.57;;;7.00;99.90;;;;;;4895986;29;20047;-81
2022/03/28 01:57:57;;;;;;;14.57;5.03;;;7.00;99.90;;;;;;4914436;29;20038;-81
2022/03/28 02:00:25;;;;;;;21.10;4.95;;;7.00;99.90;;;;;;4896988;29;20039;-81
2022/03/28 02:02:51;;;;;;;35.55;5.30;;;7.00;99.90;;;;;;4897440;29;20059;-81
2022/03/28 02:05:18;;;;;;;17.25;3.67;;;7.00;99.90;;;;;;4920794;29;20031;-82
2022/03/28 02:07:48;;;;;;;18.10;4.88;;;7.00;99.90;;;;;;4907114;29;20390;-81
2022/03/28 02:10:16;;;;;;;16.73;5.28;;;7.00;99.90;;;;;;4920583;29;20050;-81
2022/03/28 02:12:43;;;;;;;17.45;4.85;;;7.00;99.90;;;;;;4915137;29;20051;-81
2022/03/28 02:15:10;;;;;;;27.20;5.10;;;7.00;99.90;;;;;;4906122;29;20501;-81
2022/03/28 02:17:37;;;;;;;34.05;4.45;;;7.00;99.90;;;;;;4905881;29;20099;-82
2022/03/28 02:20:08;;;;;;;22.63;4.40;;;7.00;99.90;;;;;;4893858;29;20568;-81
2022/03/28 02:22:37;;;;;;;30.77;3.97;;;7.00;99.90;;;;;;4917410;29;20042;-82
2022/03/28 02:25:05;;;;;;;17.75;3.40;;;7.00;99.90;;;;;;4906175;29;20039;-81
2022/03/28 02:27:31;;;;;;;20.02;2.85;;;6.90;99.90;;;;;;4923452;29;20055;-81
2022/03/28 02:29:57;;;;;;;22.15;3.58;;;6.90;99.90;;;;;;4905133;29;20083;-81
2022/03/28 02:32:22;;;;;;;26.23;3.40;;;6.90;99.90;;;;;;4918975;29;20039;-82
2022/03/28 02:34:48;;;;;;;12.23;2.35;;;6.80;99.90;;;;;;4904765;29;20032;-83
2022/03/28 02:37:14;;;;;;;7.82;2.20;;;6.80;99.90;;;;;;4922053;29;20064;-82
2022/03/28 02:39:39;;;;;;;6.00;2.03;;;6.70;99.90;;;;;;4888773;29;20489;-81
2022/03/28 02:42:05;;;;;;;10.25;1.92;;;6.70;99.90;;;;;;4906747;29;20486;-82
2022/03/28 02:44:31;;;;;;;10.02;1.60;;;6.70;99.90;;;;;;4889715;29;20047;-83
2022/03/28 02:46:57;;;;;;;11.05;1.85;;;6.60;99.90;;;;;;4904418;29;20047;-83
2022/03/28 02:49:22;;;;;;;15.35;2.08;;;6.60;99.90;;;;;;4906429;29;20044;-81
2022/03/28 02:51:48;;;;;;;42.17;3.25;;;6.60;99.90;;;;;;4921520;29;20078;-83
2022/03/28 02:54:14;;;;;;;7.63;1.52;;;6.60;99.90;;;;;;4916269;29;20040;-83
2022/03/28 02:56:40;;;;;;;19.98;2.28;;;6.60;99.90;;;;;;4917089;29;20074;-83
2022/03/28 02:59:05;;;;;;;4.68;1.65;;;6.70;99.90;;;;;;4920572;29;20098;-83
2022/03/28 03:01:31;;;;;;;13.55;2.20;;;6.70;99.90;;;;;;4917652;29;20135;-84
2022/03/28 03:03:57;;;;;;;12.48;1.50;;;6.70;99.90;;;;;;4918774;29;20584;-83
2022/03/28 03:06:23;;;;;;;6.97;1.25;;;6.70;99.90;;;;;;4921058;29;20594;-83
2022/03/28 03:08:50;;;;;;;14.38;1.50;;;6.70;99.90;;;;;;4936172;29;20141;-83
2022/03/28 03:11:16;;;;;;;21.55;1.92;;;6.70;99.90;;;;;;4903257;29;20039;-83
2022/03/28 03:13:42;;;;;;;10.45;1.73;;;6.60;99.90;;;;;;4920346;29;20040;-83
2022/03/28 03:16:07;;;;;;;19.42;2.47;;;6.60;99.90;;;;;;4933584;29;20039;-80
2022/03/28 03:18:33;;;;;;;29.38;2.50;;;6.60;99.90;;;;;;4906428;29;20047;-80
2022/03/28 03:20:59;;;;;;;12.90;1.95;;;6.70;99.90;;;;;;4918785;29;20039;-81
2022/03/28 03:23:28;;;;;;;27.17;2.65;;;6.70;99.90;;;;;;4919745;29;20043;-83
2022/03/28 03:25:54;;;;;;;11.43;2.65;;;6.70;99.90;;;;;;4914048;29;20039;-83
2022/03/28 03:28:20;;;;;;;8.32;2.63;;;6.60;99.90;;;;;;4917306;29;20394;-83
2022/03/28 03:30:48;;;;;;;11.45;2.28;;;6.60;99.90;;;;;;4903493;29;20060;-83
2022/03/28 03:33:14;;;;;;;16.38;2.88;;;6.60;99.90;;;;;;4921052;29;20114;-83
2022/03/28 03:35:40;;;;;;;12.27;2.28;;;6.50;99.90;;;;;;4904622;29;20131;-84
2022/03/28 03:38:06;;;;;;;13.35;2.63;;;6.50;99.90;;;;;;4903485;29;20118;-83
2022/03/28 03:40:32;;;;;;;19.83;2.72;;;6.50;99.90;;;;;;4904522;29;20051;-83
2022/03/28 03:42:58;;;;;;;11.43;2.38;;;6.50;99.90;;;;;;4919306;29;20143;-84
2022/03/28 03:45:23;;;;;;;11.18;2.40;;;6.50;99.90;;;;;;4918972;29;20123;-83
2022/03/28 03:47:51;;;;;;;20.10;3.17;;;6.50;99.90;;;;;;4899109;29;20044;-83
2022/03/28 03:50:17;;;;;;;13.75;2.92;;;6.50;99.90;;;;;;4916857;29;20042;-83
2022/03/28 03:52:42;;;;;;;14.57;3.20;;;6.50;99.90;;;;;;4902441;29;20043;-83
2022/03/28 03:55:08;;;;;;;43.17;4.13;;;6.40;99.90;;;;;;4903985;29;20035;-83
2022/03/28 03:57:34;;;;;;;37.28;4.38;;;6.40;99.90;;;;;;4936797;29;20409;-83
2022/03/28 04:00:00;;;;;;;22.05;4.53;;;6.40;99.90;;;;;;4904184;29;20039;-83
2022/03/28 04:02:25;;;;;;;30.80;4.32;;;6.30;99.90;;;;;;4905562;29;20106;-83
2022/03/28 04:04:51;;;;;;;58.20;5.25;;;6.30;99.90;;;;;;4930244;29;20106;-83
2022/03/28 04:07:17;;;;;;;15.93;3.97;;;6.30;99.90;;;;;;4910671;29;20047;-83
2022/03/28 04:09:42;;;;;;;15.88;4.00;;;6.30;99.90;;;;;;4902133;29;20044;-82
2022/03/28 04:12:09;;;;;;;24.55;4.85;;;6.20;99.90;;;;;;4933258;29;20028;-83
2022/03/28 04:14:34;;;;;;;9.60;3.38;;;6.20;99.90;;;;;;4918995;29;20046;-83
2022/03/28 04:17:00;;;;;;;42.42;7.07;;;6.20;99.90;;;;;;4919911;29;20151;-83
2022/03/28 04:19:26;;;;;;;17.08;5.80;;;6.20;99.90;;;;;;4918015;29;20044;-83
2022/03/28 04:21:52;;;;;;;16.92;4.72;;;6.30;99.90;;;;;;4917279;29;20058;-83
2022/03/28 04:24:18;;;;;;;14.07;5.53;;;6.30;99.90;;;;;;4901489;29;20044;-83
2022/03/28 04:26:43;;;;;;;10.10;4.30;;;6.40;99.90;;;;;;4918818;29;20077;-82
2022/03/28 04:29:10;;;;;;;13.60;5.05;;;6.30;99.90;;;;;;4915956;29;20552;-83
2022/03/28 04:31:40;;;;;;;16.17;5.15;;;6.40;99.90;;;;;;4916175;29;20042;-83
2022/03/28 04:34:09;;;;;;;16.05;6.30;;;6.30;99.90;;;;;;4913726;29;20040;-83
2022/03/28 04:36:37;;;;;;;21.45;5.75;;;6.30;99.90;;;;;;4916230;29;20040;-83
2022/03/28 04:39:03;;;;;;;17.02;6.63;;;6.30;99.90;;;;;;4898662;29;20040;-80
2022/03/28 04:41:29;;;;;;;14.63;5.20;;;6.40;99.90;;;;;;4899248;29;20063;-81
2022/03/28 04:43:55;;;;;;;25.60;7.55;;;6.30;99.90;;;;;;4914581;29;20044;-82
2022/03/28 04:46:21;;;;;;;24.98;6.53;;;6.40;99.90;;;;;;4913822;29;20048;-82
2022/03/28 04:48:47;;;;;;;24.70;7.53;;;6.40;99.90;;;;;;4917342;29;20035;-82
2022/03/28 04:51:13;;;;;;;20.60;7.70;;;6.40;99.90;;;;;;4898849;29;20094;-82
2022/03/28 04:53:38;;;;;;;22.83;7.97;;;6.40;99.90;;;;;;4931589;29;20051;-83
2022/03/28 04:56:04;;;;;;;29.40;7.20;;;6.40;99.90;;;;;;4897744;29;20062;-82
2022/03/28 04:58:30;;;;;;;16.08;6.63;;;6.30;99.90;;;;;;4915671;29;20047;-82
2022/03/28 05:00:55;;;;;;;19.88;6.75;;;6.30;99.90;;;;;;4899083;29;20042;-82
2022/03/28 05:03:21;;;;;;;18.55;7.43;;;6.30;99.90;;;;;;4901272;29;20428;-82
2022/03/28 05:05:47;;;;;;;19.50;7.70;;;6.30;99.90;;;;;;4913069;29;20047;-82
2022/03/28 05:08:12;;;;;;;20.40;7.30;;;6.30;99.90;;;;;;4931427;29;20060;-82
2022/03/28 05:10:38;;;;;;;21.60;6.85;;;6.30;99.90;;;;;;4914037;29;20111;-82
2022/03/28 05:13:04;;;;;;;25.15;8.00;;;6.30;99.90;;;;;;4899373;29;20103;-82
2022/03/28 05:15:31;;;;;;;24.13;8.65;;;6.30;99.90;;;;;;4900250;29;20032;-82
2022/03/28 05:17:57;;;;;;;25.63;7.60;;;6.30;99.90;;;;;;4903775;29;20122;-82
2022/03/28 05:20:23;;;;;;;22.63;7.90;;;6.30;99.90;;;;;;4915113;29;20042;-82
2022/03/28 05:22:48;;;;;;;19.63;7.30;;;6.30;99.90;;;;;;4933115;29;20039;-82
2022/03/28 05:25:14;;;;;;;24.70;7.88;;;6.30;99.90;;;;;;4900198;29;20047;-82
2022/03/28 05:27:47;;;;;;;27.30;8.82;;;6.30;99.90;;;;;;4909604;29;20485;-82
2022/03/28 05:30:14;;;;;;;20.33;8.15;;;6.30;99.90;;;;;;4915108;29;20338;-82
2022/03/28 05:32:40;;;;;;;25.58;7.72;;;6.30;99.90;;;;;;4915882;29;20087;-82
2022/03/28 05:35:06;;;;;;;22.98;8.82;;;6.30;99.90;;;;;;4915793;29;20043;-82
2022/03/28 05:37:33;;;;;;;22.50;7.55;;;6.40;99.90;;;;;;4912739;29;20055;-82
2022/03/28 05:39:59;;;;;;;19.75;7.75;;;6.40;99.90;;;;;;4894813;29;20031;-83
2022/03/28 05:42:25;;;;;;;24.88;8.80;;;6.40;99.90;;;;;;4898344;29;20048;-82
2022/03/28 05:44:51;;;;;;;24.45;8.82;;;6.40;99.90;;;;;;4913372;29;20051;-83
2022/03/28 05:47:16;;;;;;;21.90;8.75;;;6.40;99.90;;;;;;4916738;29;20691;-82
2022/03/28 05:49:42;;;;;;;21.38;8.93;;;6.50;99.90;;;;;;4914430;29;20052;-83
2022/03/28 05:52:08;;;;;;;24.30;8.70;;;6.50;99.90;;;;;;4935577;29;20039;-83
2022/03/28 05:54:34;;;;;;;20.80;8.07;;;6.50;99.90;;;;;;4902253;29;20158;-83
2022/03/28 05:57:00;;;;;;;19.48;7.53;;;6.50;99.90;;;;;;4935446;29;20063;-82
2022/03/28 05:59:26;;;;;;;16.90;7.75;;;6.60;99.90;;;;;;4933871;29;20115;-83
2022/03/28 06:01:52;;;;;;;19.30;8.05;;;6.60;99.90;;;;;;4931602;29;20448;-82
2022/03/28 06:04:18;;;;;;;20.80;8.35;;;6.60;99.90;;;;;;4900386;29;20046;-83
2022/03/28 06:06:44;;;;;;;24.20;9.77;;;6.60;99.90;;;;;;4922089;29;20130;-82
2022/03/28 06:09:09;;;;;;;23.85;9.75;;;6.60;99.90;;;;;;4900268;29;20045;-83
2022/03/28 06:11:35;;;;;;;30.83;10.13;;;6.60;99.90;;;;;;4917911;29;20127;-83
2022/03/28 06:14:01;;;;;;;39.22;9.60;;;6.70;99.90;;;;;;4902124;29;20052;-83
2022/03/28 06:16:27;;;;;;;27.40;10.10;;;6.70;99.90;;;;;;4915890;29;20036;-83
2022/03/28 06:18:53;;;;;;;27.55;10.82;;;6.60;99.90;;;;;;4882968;29;20041;-84
2022/03/28 06:21:19;;;;;;;19.67;8.65;;;6.60;99.90;;;;;;4916016;29;20347;-83
2022/03/28 06:23:45;;;;;;;26.85;7.82;;;6.60;99.90;;;;;;4915064;29;20041;-84
2022/03/28 06:26:11;;;;;;;29.65;9.20;;;6.60;99.90;;;;;;4904514;29;20032;-83
2022/03/28 06:28:39;;;;;;;23.58;10.55;;;6.70;99.90;;;;;;4902629;29;20040;-84
2022/03/28 06:31:05;;;;;;;20.48;9.43;;;6.70;99.90;;;;;;4903293;29;20040;-84
2022/03/28 06:33:31;;;;;;;32.45;11.80;;;6.70;99.90;;;;;;4921944;29;20028;-84
2022/03/28 06:35:57;;;;;;;26.58;9.40;;;6.80;99.90;;;;;;4919287;29;20480;-83
2022/03/28 06:38:23;;;;;;;22.15;8.95;;;6.80;99.90;;;;;;4916573;29;21907;-84
2022/03/28 06:40:49;;;;;;;32.90;11.55;;;6.90;99.90;;;;;;4903336;29;20043;-84
2022/03/28 06:43:14;;;;;;;20.52;9.85;;;6.90;99.90;;;;;;4883112;29;20048;-83
2022/03/28 06:45:40;;;;;;;26.17;10.57;;;6.80;99.90;;;;;;4912642;29;20048;-84
2022/03/28 06:48:06;;;;;;;30.90;10.48;;;6.80;99.90;;;;;;4899802;29;20032;-83
2022/03/28 06:50:34;;;;;;;26.17;9.60;;;6.80;99.90;;;;;;4915489;29;20185;-84
2022/03/28 06:53:00;;;;;;;27.83;9.65;;;6.80;99.90;;;;;;4912273;29;20036;-83
2022/03/28 06:55:26;;;;;;;52.03;11.38;;;6.80;99.90;;;;;;4917648;29;20091;-83
2022/03/28 06:57:52;;;;;;;29.38;9.88;;;6.80;99.90;;;;;;4902946;29;20047;-84
2022/03/28 07:00:17;;;;;;;24.63;9.82;;;6.80;99.90;;;;;;4918546;29;20074;-84
2022/03/28 07:02:43;;;;;;;26.70;10.02;;;6.70;99.90;;;;;;4916430;29;20533;-84
2022/03/28 07:05:09;;;;;;;17.77;7.63;;;6.70;99.90;;;;;;4915426;29;20043;-84
2022/03/28 07:07:49;;;;;;;32.70;9.85;;;6.80;99.90;;;;;;4916845;29;20068;-83
2022/03/28 07:10:18;;;;;;;30.33;10.60;;;6.80;99.90;;;;;;4889369;29;20464;-83
2022/03/28 07:12:44;;;;;;;25.25;10.57;;;6.90;99.90;;;;;;4921391;29;20039;-84
2022/03/28 07:15:11;;;;;;;24.13;9.55;;;6.80;99.90;;;;;;4903483;29;20044;-84
2022/03/28 07:17:55;;;;;;;17.77;7.70;;;6.90;99.90;;;;;;4895845;29;20044;-84
2022/03/28 07:20:27;;;;;;;17.65;8.10;;;6.90;99.90;;;;;;4902264;29;20059;-84
2022/03/28 07:22:54;;;;;;;16.77;7.85;;;6.90;99.90;;;;;;4903624;29;20138;-83
2022/03/28 07:25:21;;;;;;;17.55;8.40;;;7.00;99.90;;;;;;4919407;29;20036;-84
2022/03/28 07:27:47;;;;;;;16.60;7.55;;;6.90;99.90;;;;;;4915875;29;20060;-84
2022/03/28 07:30:14;;;;;;;14.77;7.18;;;7.00;99.90;;;;;;4903548;29;20070;-83
2022/03/28 07:32:40;;;;;;;15.40;8.40;;;7.10;99.90;;;;;;4902612;29;20032;-84
2022/03/28 07:35:08;;;;;;;15.98;8.05;;;7.10;99.90;;;;;;4900379;29;20040;-83
2022/03/28 07:37:34;;;;;;;15.60;7.93;;;7.10;99.90;;;;;;4883121;29;20170;-83
2022/03/28 07:40:01;;;;;;;15.30;7.78;;;7.10;99.90;;;;;;4903905;29;20126;-84
2022/03/28 07:42:28;;;;;;;15.48;7.47;;;7.10;99.90;;;;;;4916122;29;20063;-84
2022/03/28 07:44:56;;;;;;;15.43;9.00;;;7.20;99.90;;;;;;4919574;29;20107;-84
2022/03/28 07:47:25;;;;;;;16.42;8.88;;;7.20;99.90;;;;;;4920304;29;20039;-84
2022/03/28 07:49:55;;;;;;;21.65;9.20;;;7.20;99.90;;;;;;4903010;29;20095;-83
2022/03/28 07:52:21;;;;;;;20.85;8.32;;;7.20;99.90;;;;;;4919845;29;20488;-84
2022/03/28 07:54:48;;;;;;;20.77;9.13;;;7.20;99.90;;;;;;4936420;29;20051;-84
2022/03/28 07:57:15;;;;;;;17.02;8.10;;;7.20;99.90;;;;;;4903109;29;20047;-83
2022/03/28 07:59:42;;;;;;;15.93;8.07;;;7.20;99.90;;;;;;4906446;29;20048;-83
2022/03/28 08:02:09;;;;;;;18.25;8.93;;;7.20;99.90;;;;;;4914840;29;20039;-83
2022/03/28 08:04:34;;;;;;;22.70;9.93;;;7.20;99.90;;;;;;4923465;29;20024;-84
2022/03/28 08:07:03;;;;;;;15.77;8.93;;;7.20;99.90;;;;;;4913951;29;20422;-83
2022/03/28 08:09:28;;;;;;;16.65;9.48;;;7.20;99.90;;;;;;4898671;29;20063;-83
2022/03/28 08:11:56;;;;;;;15.20;8.82;;;7.20;99.90;;;;;;4932172;29;20074;-84
2022/03/28 08:14:23;;;;;;;15.82;8.55;;;7.30;99.90;;;;;;4918587;29;20492;-84
2022/03/28 08:16:49;;;;;;;14.57;7.45;;;7.30;99.90;;;;;;4900663;29;20055;-84
2022/03/28 08:19:14;;;;;;;17.40;9.50;;;7.40;99.90;;;;;;4899592;29;20074;-84
2022/03/28 08:21:40;;;;;;;18.00;9.82;;;7.50;99.90;;;;;;4898119;29;20040;-84
2022/03/28 08:24:06;;;;;;;15.82;8.63;;;7.50;99.90;;;;;;4900809;29;20417;-83
2022/03/28 08:26:32;;;;;;;16.15;9.38;;;7.60;99.90;;;;;;4914477;29;20039;-83
2022/03/28 08:28:57;;;;;;;17.25;9.32;;;7.60;99.90;;;;;;4900003;29;20127;-83
2022/03/28 08:31:23;;;;;;;18.50;10.23;;;7.70;99.90;;;;;;4917949;29;20036;-83
2022/03/28 08:33:49;;;;;;;21.48;10.95;;;7.80;99.90;;;;;;4918113;29;20160;-83
2022/03/28 08:36:15;;;;;;;14.98;8.88;;;7.90;99.90;;;;;;4901960;29;20035;-84
2022/03/28 08:38:41;;;;;;;17.13;9.57;;;7.90;99.90;;;;;;4916590;29;20044;-84
2022/03/28 08:41:12;;;;;;;16.27;8.65;;;7.90;99.90;;;;;;4900797;29;20054;-83
2022/03/28 08:43:38;;;;;;;16.83;9.50;;;8.00;99.90;;;;;;4899242;29;20051;-83
2022/03/28 08:46:05;;;;;;;16.83;9.27;;;8.10;99.90;;;;;;4905080;29;20050;-83
2022/03/28 08:48:38;;;;;;;18.75;9.43;;;8.10;99.90;;;;;;4901653;29;20035;-83
2022/03/28 08:51:04;;;;;;;16.38;9.73;;;8.20;99.90;;;;;;4911877;29;20130;-83
2022/03/28 08:53:31;;;;;;;16.67;8.85;;;8.30;99.90;;;;;;4898800;29;20127;-84
2022/03/28 08:55:57;;;;;;;14.43;8.63;;;8.40;99.90;;;;;;4880689;29;20096;-83
2022/03/28 08:58:23;;;;;;;17.63;10.13;;;8.50;99.90;;;;;;4917449;29;20046;-83
2022/03/28 09:00:48;;;;;;;16.58;9.20;;;8.60;99.90;;;;;;4899496;29;20040;-84
2022/03/28 09:03:14;;;;;;;15.45;8.85;;;8.60;99.90;;;;;;4897014;29;20035;-84
2022/03/28 09:05:41;;;;;;;15.95;9.68;;;8.70;99.90;;;;;;4899498;29;20036;-83
2022/03/28 09:08:08;;;;;;;13.45;7.95;;;8.70;99.90;;;;;;4927157;29;20056;-84
2022/03/28 09:10:35;;;;;;;14.63;8.13;;;8.60;99.90;;;;;;4900044;29;20091;-84
2022/03/28 09:13:05;;;;;;;15.02;8.48;;;8.60;99.90;;;;;;4916271;29;20505;-83
2022/03/28 09:15:53;;;;;;;15.68;8.90;;;8.60;99.90;;;;;;4918060;29;20039;-83
2022/03/28 09:18:25;;;;;;;16.52;8.20;;;8.70;99.90;;;;;;4934343;28;20048;-83
2022/03/28 09:21:11;;;;;;;14.55;8.27;;;8.70;99.90;;;;;;4898107;29;20040;-83
2022/03/28 09:23:44;;;;;;;12.15;6.85;;;8.80;99.90;;;;;;4899071;29;20425;-83
2022/03/28 09:26:16;;;;;;;12.57;7.32;;;8.80;99.90;;;;;;4915248;29;20040;-83
2022/03/28 09:28:53;;;;;;;10.07;5.72;;;8.90;99.90;;;;;;4913416;29;20122;-83
2022/03/28 09:31:28;;;;;;;14.05;7.18;;;9.00;99.90;;;;;;4923969;29;20098;-83
2022/03/28 09:33:56;;;;;;;11.25;5.43;;;9.10;99.90;;;;;;4914350;29;20050;-81
2022/03/28 09:36:44;;;;;;;9.68;5.75;;;9.10;99.90;;;;;;4920392;29;20414;-85
2022/03/28 09:39:16;;;;;;;10.85;6.07;;;9.10;99.90;;;;;;4915879;29;20087;-83
2022/03/28 09:41:46;;;;;;;12.50;6.25;;;9.20;99.90;;;;;;4907423;29;20455;-83
2022/03/28 09:44:12;;;;;;;9.75;5.90;;;9.30;99.90;;;;;;4914396;29;20123;-83
2022/03/28 09:46:39;;;;;;;9.90;5.90;;;9.30;99.90;;;;;;4919212;29;20158;-84
2022/03/28 09:49:05;;;;;;;12.23;7.20;;;9.50;99.90;;;;;;4900997;29;20457;-84
2022/03/28 09:51:34;;;;;;;9.63;5.78;;;9.50;99.90;;;;;;4919189;29;20039;-84
2022/03/28 09:54:00;;;;;;;11.13;6.57;;;9.50;99.90;;;;;;4906002;29;20078;-84
2022/03/28 09:56:26;;;;;;;10.75;6.10;;;9.50;99.90;;;;;;4915099;29;20079;-84
2022/03/28 09:59:01;;;;;;;10.25;5.55;;;9.60;99.90;;;;;;4902307;29;20047;-84
2022/03/28 10:01:31;;;;;;;11.23;6.40;;;9.70;99.90;;;;;;4915419;29;20043;-84
2022/03/28 10:04:05;;;;;;;10.50;6.05;;;9.80;99.90;;;;;;4914380;29;20051;-84
2022/03/28 10:06:31;;;;;;;11.40;5.10;;;9.90;99.90;;;;;;4901454;29;20035;-84
2022/03/28 10:08:58;;;;;;;10.05;6.20;;;9.90;99.90;;;;;;4898899;29;20069;-84
2022/03/28 10:11:25;;;;;;;10.75;4.88;;;10.00;99.90;;;;;;4917387;29;20056;-83
2022/03/28 10:13:51;;;;;;;10.10;6.10;;;10.00;99.90;;;;;;4902958;29;20413;-83
2022/03/28 10:16:17;;;;;;;10.77;5.20;;;10.00;99.90;;;;;;4901912;29;20035;-84
2022/03/28 10:18:45;;;;;;;12.85;5.68;;;10.00;99.90;;;;;;4916154;29;20043;-84
2022/03/28 10:21:40;;;;;;;13.65;7.72;;;10.10;99.90;;;;;;4930403;29;20043;-84
2022/03/28 10:24:13;;;;;;;9.40;5.38;;;10.30;99.90;;;;;;4908211;29;20139;-84
2022/03/28 10:26:44;;;;;;;14.95;8.10;;;10.40;99.90;;;;;;4902062;29;20047;-84
2022/03/28 10:29:12;;;;;;;10.63;5.03;;;10.50;99.90;;;;;;4917760;29;20047;-84
2022/03/28 10:31:57;;;;;;;10.57;5.85;;;10.70;99.90;;;;;;4914825;29;20397;-85
2022/03/28 10:34:47;;;;;;;8.75;4.75;;;11.10;99.90;;;;;;4933843;29;20078;-84
2022/03/28 10:37:36;;;;;;;8.10;4.80;;;11.30;99.90;;;;;;4912698;29;20065;-84
2022/03/28 10:40:28;;;;;;;9.43;4.60;;;11.40;99.90;;;;;;4921240;29;20040;-84
2022/03/28 10:43:13;;;;;;;8.32;5.18;;;11.60;99.90;;;;;;4900078;29;20035;-83
2022/03/28 10:45:49;;;;;;;9.35;5.05;;;11.60;99.90;;;;;;4917242;29;20129;-83
2022/03/28 10:48:16;;;;;;;8.68;4.95;;;11.60;99.90;;;;;;4918807;29;20047;-85
2022/03/28 10:50:54;;;;;;;8.30;5.15;;;11.60;99.90;;;;;;4929278;29;20043;-84
2022/03/28 10:53:33;;;;;;;6.95;4.10;;;11.60;99.90;;;;;;4913880;29;20047;-83
2022/03/28 10:56:05;;;;;;;7.75;4.40;;;11.60;99.90;;;;;;4897838;29;20051;-83
2022/03/28 10:58:40;;;;;;;8.50;4.80;;;11.70;99.90;;;;;;4907179;29;20117;-84
2022/03/28 11:01:09;;;;;;;9.10;5.35;;;11.80;99.90;;;;;;4884189;29;20036;-84
2022/03/28 11:03:54;;;;;;;8.77;4.63;;;11.90;99.90;;;;;;4911923;29;20044;-84
2022/03/28 11:06:43;;;;;;;9.90;4.90;;;11.90;99.90;;;;;;4902384;29;20102;-84
2022/03/28 11:09:09;;;;;;;7.68;4.57;;;12.10;99.90;;;;;;4896615;29;20048;-84
2022/03/28 11:11:35;;;;;;;9.23;4.30;;;12.10;99.50;;;;;;4898023;29;20557;-83
2022/03/28 11:14:12;;;;;;;9.63;4.03;;;12.20;98.70;;;;;;4911667;29;20533;-83
2022/03/28 11:16:52;;;;;;;6.25;3.42;;;12.20;97.80;;;;;;4893120;29;20071;-84
2022/03/28 11:19:29;;;;;;;7.53;3.53;;;12.20;97.90;;;;;;4913949;29;20040;-84
2022/03/28 11:22:04;;;;;;;6.82;3.60;;;12.10;98.30;;;;;;4897221;29;20051;-84
2022/03/28 11:24:49;;;;;;;6.30;3.78;;;12.30;97.70;;;;;;4884998;29;20048;-84
2022/03/28 11:27:16;;;;;;;7.32;3.83;;;12.40;96.20;;;;;;4911261;29;20059;-84
2022/03/28 11:29:43;;;;;;;6.65;4.00;;;12.50;96.60;;;;;;4897898;29;20094;-84
2022/03/28 11:32:12;;;;;;;5.70;3.42;;;12.50;96.30;;;;;;4911777;29;20479;-84
2022/03/28 11:34:39;;;;;;;6.55;3.53;;;12.60;96.30;;;;;;4894100;29;20485;-84
2022/03/28 11:37:05;;;;;;;6.13;3.67;;;12.70;96.30;;;;;;4898228;29;20035;-84
2022/03/28 11:39:50;;;;;;;5.40;3.33;;;12.90;95.70;;;;;;4914428;29;20044;-84
2022/03/28 11:42:20;;;;;;;5.57;3.35;;;13.10;95.10;;;;;;4904604;29;20127;-84
2022/03/28 11:44:45;;;;;;;6.00;3.33;;;13.30;93.60;;;;;;4897242;29;20108;-84
2022/03/28 11:47:17;;;;;;;6.20;3.22;;;13.30;93.30;;;;;;4912521;29;20044;-84
2022/03/28 11:49:56;;;;;;;5.22;3.30;;;13.30;92.60;;;;;;4913439;29;20127;-84
2022/03/28 11:52:23;;;;;;;5.47;3.70;;;13.50;91.50;;;;;;4908853;29;20040;-84
2022/03/28 11:54:49;;;;;;;5.55;3.25;;;13.60;91.40;;;;;;4899319;29;20056;-85
2022/03/28 12:00:25;;;;;;;6.88;3.70;;;13.60;89.10;;;;;;4917097;29;20075;-84
2022/03/28 12:02:52;;;;;;;6.57;3.85;;;13.50;89.90;;;;;;4918367;29;20039;-84
2022/03/28 12:05:24;;;;;;;5.78;3.75;;;13.40;89.50;;;;;;4898878;29;21780;-84
2022/03/28 12:07:50;;;;;;;6.65;3.95;;;13.40;89.60;;;;;;4915996;29;20036;-84
2022/03/28 12:10:16;;;;;;;5.65;3.17;;;13.40;88.00;;;;;;4905093;29;20051;-85
2022/03/28 12:12:43;;;;;;;6.60;3.55;;;13.60;87.90;;;;;;4902968;29;20621;-85
2022/03/28 12:15:12;;;;;;;5.80;3.67;;;13.70;87.10;;;;;;4902752;29;20043;-84
2022/03/28 12:17:40;;;;;;;6.13;3.63;;;13.80;84.40;;;;;;4937108;28;20047;-85
2022/03/28 12:20:07;;;;;;;7.07;3.80;;;13.90;84.60;;;;;;4917132;29;20039;-85
2022/03/28 12:22:47;;;;;;;7.68;4.40;;;14.10;84.30;;;;;;4916408;29;20389;-84
2022/03/28 12:25:43;;;;;;;8.10;4.28;;;14.30;80.80;;;;;;4917416;29;20044;-84
2022/03/28 12:28:15;;;;;;;7.97;3.67;;;14.40;80.40;;;;;;4897644;29;20048;-85
2022/03/28 12:30:47;;;;;;;7.25;4.15;;;14.40;79.60;;;;;;4901888;29;20032;-84
2022/03/28 12:33:22;;;;;;;8.68;4.13;;;14.40;79.10;;;;;;4916638;29;20525;-85
2022/03/28 12:35:53;;;;;;;8.40;4.50;;;14.50;80.00;;;;;;4914193;29;20505;-84
2022/03/28 12:38:30;;;;;;;8.27;4.57;;;14.70;77.80;;;;;;4898340;29;20046;-84
2022/03/28 12:40:58;;;;;;;8.52;4.40;;;15.00;76.20;;;;;;4899410;29;20044;-84
2022/03/28 12:43:28;;;;;;;7.85;4.72;;;15.30;74.60;;;;;;4886658;29;20091;-85
2022/03/28 12:45:55;;;;;;;6.80;4.53;;;15.50;72.10;;;;;;4901467;29;20130;-84
2022/03/28 12:48:21;;;;;;;8.43;4.70;;;15.70;71.40;;;;;;4885452;29;20108;-84
2022/03/28 12:51:00;;;;;;;8.93;4.55;;;16.10;68.30;;;;;;4934358;29;20107;-84
2022/03/28 12:53:29;;;;;;;8.85;5.10;;;16.80;64.80;;;;;;4887640;29;20174;-84